Sea Jay — WDE8232 — position and weather

sailwx.info

Track history (hours):
 
Tides and Currents Weather Stations Pressure Air Temp Water Temp Dewpoint Dewpoint Depression Visibility Wind Speed Wind Dir Waves Ship Positions

Sea Jay

Owner: Matheson, James K, Everett, WA. More information available from US FCC via Universal Licensing System and Coast Guard Vessel Documentation Center.

Last reported at 2017-Jun-27 15:41 UTC. Time now 2017-Jun-27 18:58 UTC.
Position N 49°08' W 125°40'.

Length 21 m.

Type: Pleasure craft. MMSI: 367403070.

Date/timePositionNaut miles runAvg speedWind from/ knotsBaromVisibWave heightAir tempDewpointWater temp
2017-Jun-27 15:41N 49°08' W 125°40'0 0.0
2017-Jun-27 15:14N 49°08' W 125°40'0 0.0
2017-Jun-27 14:38N 49°08' W 125°40'0 0.0
2017-Jun-27 13:47N 49°08' W 125°40'0 0.0
2017-Jun-27 13:08N 49°08' W 125°40'0 0.0
2017-Jun-27 12:59N 49°08' W 125°40'0 0.0
2017-Jun-27 11:20N 49°08' W 125°40'0 0.0
2017-Jun-26 23:59N 49°08' W 125°40'0 0.0
2017-Jun-26 20:26N 49°08' W 125°40'1 1.2
2017-Jun-26 19:59N 49°09' W 125°41'5 7.4
2017-Jun-26 19:22N 49°07' W 125°48'5 0.2
2017-Jun-25 15:25N 49°07' W 125°55'4 9.6
2017-Jun-25 14:59N 49°03' W 125°51'10 9.9
2017-Jun-25 14:00N 48°58' W 125°39'510.3
2017-Jun-25 13:30N 48°55' W 125°32'3 5.2
2017-Jun-25 13:01N 48°57' W 125°34'0 0.2
2017-Jun-25 12:29N 48°57' W 125°34'0 0.0
2017-Jun-25 11:59N 48°57' W 125°34'0 0.0
2017-Jun-25 11:29N 48°57' W 125°34'0 0.0
2017-Jun-25 10:59N 48°57' W 125°34'0 0.0
2017-Jun-25 10:29N 48°57' W 125°34'0 0.0
2017-Jun-25 09:56N 48°57' W 125°34'0 0.0
2017-Jun-25 09:29N 48°57' W 125°34'0 0.0
2017-Jun-25 08:59N 48°57' W 125°34'0 0.0
2017-Jun-25 08:29N 48°57' W 125°34'0 0.0
2017-Jun-25 07:59N 48°57' W 125°34'0 0.0
2017-Jun-25 07:29N 48°57' W 125°34'0 0.0
2017-Jun-25 06:59N 48°57' W 125°34'0 0.0
2017-Jun-25 06:29N 48°57' W 125°34'0 0.0
2017-Jun-25 05:59N 48°57' W 125°34'0 0.0
2017-Jun-25 05:29N 48°57' W 125°34'0 0.0
2017-Jun-25 04:59N 48°57' W 125°34'0 0.0
2017-Jun-25 04:29N 48°57' W 125°34'0 0.0
2017-Jun-25 03:59N 48°57' W 125°34'0 0.0
2017-Jun-25 03:29N 48°57' W 125°34'0 0.0
2017-Jun-25 02:59N 48°57' W 125°34'0 0.0
2017-Jun-25 02:29N 48°57' W 125°34'0 0.0
2017-Jun-25 01:59N 48°57' W 125°34'0 0.0
2017-Jun-25 01:29N 48°57' W 125°34'0 0.0
2017-Jun-25 00:59N 48°57' W 125°34'0 0.0
2017-Jun-25 00:29N 48°57' W 125°34'0 0.0
2017-Jun-24 23:59N 48°57' W 125°34'0 0.9
2017-Jun-24 23:30N 48°57' W 125°33'2 4.1
2017-Jun-24 23:00N 48°56' W 125°31'2 4.1
2017-Jun-24 22:29N 48°55' W 125°28'6 1.3
2017-Jun-24 17:49N 48°58' W 125°20'3 9.6
2017-Jun-24 17:30N 48°57' W 125°15'  
2017-Jun-20 19:26N 48°55' W 125°19'2 4.2
2017-Jun-20 18:52N 48°53' W 125°19'0 0.2
2017-Jun-20 18:08N 48°52' W 125°18'0 0.0
2017-Jun-20 17:38N 48°52' W 125°18'0 0.0
2017-Jun-20 17:23N 48°52' W 125°18'0 0.0
2017-Jun-20 16:44N 48°52' W 125°18'0 0.0
2017-Jun-20 16:29N 48°52' W 125°18'0 0.0
2017-Jun-20 15:02N 48°52' W 125°18'0 0.0
2017-Jun-20 14:59N 48°52' W 125°18'0 0.0
2017-Jun-20 14:29N 48°52' W 125°18'0 0.0
2017-Jun-20 13:29N 48°52' W 125°18'0 0.0
2017-Jun-20 12:56N 48°52' W 125°18'0 0.0
2017-Jun-20 12:29N 48°52' W 125°18'0 0.0
2017-Jun-20 11:50N 48°52' W 125°18'0 0.0
2017-Jun-20 11:26N 48°52' W 125°18'0 0.1
2017-Jun-20 10:59N 48°52' W 125°18'0 0.0
2017-Jun-20 10:29N 48°52' W 125°18'0 0.0
2017-Jun-20 09:59N 48°52' W 125°18'0 0.0
2017-Jun-20 09:29N 48°52' W 125°18'0 0.0
2017-Jun-20 07:38N 48°52' W 125°18'0 0.0
2017-Jun-20 07:23N 48°52' W 125°18'0 0.0
2017-Jun-20 06:56N 48°52' W 125°18'0 0.0
2017-Jun-20 05:59N 48°52' W 125°18'0 0.0
2017-Jun-20 05:26N 48°52' W 125°18'0 0.0
2017-Jun-20 04:50N 48°52' W 125°18'0 0.0
2017-Jun-20 02:44N 48°52' W 125°18'0 0.0
2017-Jun-19 23:56N 48°52' W 125°18'0 0.1
2017-Jun-19 23:25N 48°53' W 125°19'0 0.0
2017-Jun-19 22:52N 48°53' W 125°19'1 1.5
2017-Jun-19 22:26N 48°53' W 125°19'23 8.8
2017-Jun-19 19:47N 48°38' W 124°52'310.0
2017-Jun-19 19:30N 48°37' W 124°48'5 9.5
2017-Jun-19 19:00N 48°35' W 124°42'5 9.7
2017-Jun-19 18:30N 48°33' W 124°35'510.0
2017-Jun-19 18:00N 48°30' W 124°29'510.3
2017-Jun-19 17:30N 48°28' W 124°22'510.1
2017-Jun-19 17:00N 48°26' W 124°15'610.3
2017-Jun-19 16:27N 48°24' W 124°07'2510.2
2017-Jun-19 13:58N 48°20' W 123°29'5 9.6
2017-Jun-19 13:29N 48°24' W 123°25'3 0.2
2017-Jun-18 23:43N 48°25' W 123°22'0 2.0
2017-Jun-18 23:30N 48°25' W 123°23'0 0.1
2017-Jun-18 23:00N 48°25' W 123°23'0 0.1
2017-Jun-18 22:03N 48°25' W 123°23'0 1.9
2017-Jun-18 22:00N 48°25' W 123°23'2 3.6
2017-Jun-18 21:30N 48°24' W 123°21'611.1
2017-Jun-18 21:00N 48°21' W 123°14'  
Track history (hours):
 
Tides and Currents Weather Stations Pressure Air Temp Water Temp Dewpoint Dewpoint Depression Visibility Wind Speed Wind Dir Waves Ship Positions

Sea Jay

Owner: Matheson, James K, Everett, WA. More information available from US FCC via Universal Licensing System and Coast Guard Vessel Documentation Center.

Last reported at 2017-Jun-27 15:41 UTC. Time now 2017-Jun-27 18:58 UTC.
Position N 49°08' W 125°40'.

Length 21 m.

Type: Pleasure craft. MMSI: 367403070.

Date/timePositionNaut miles runAvg speedWind from/ knotsBaromVisibWave heightAir tempDewpointWater temp
2017-Jun-27 15:41N 49°08' W 125°40'0 0.0
2017-Jun-27 15:14N 49°08' W 125°40'0 0.0
2017-Jun-27 14:38N 49°08' W 125°40'0 0.0
2017-Jun-27 13:47N 49°08' W 125°40'0 0.0
2017-Jun-27 13:08N 49°08' W 125°40'0 0.0
2017-Jun-27 12:59N 49°08' W 125°40'0 0.0
2017-Jun-27 11:20N 49°08' W 125°40'0 0.0
2017-Jun-26 23:59N 49°08' W 125°40'0 0.0
2017-Jun-26 20:26N 49°08' W 125°40'1 1.2
2017-Jun-26 19:59N 49°09' W 125°41'5 7.4
2017-Jun-26 19:22N 49°07' W 125°48'5 0.2
2017-Jun-25 15:25N 49°07' W 125°55'4 9.6
2017-Jun-25 14:59N 49°03' W 125°51'10 9.9
2017-Jun-25 14:00N 48°58' W 125°39'510.3
2017-Jun-25 13:30N 48°55' W 125°32'3 5.2
2017-Jun-25 13:01N 48°57' W 125°34'0 0.2
2017-Jun-25 12:29N 48°57' W 125°34'0 0.0
2017-Jun-25 11:59N 48°57' W 125°34'0 0.0
2017-Jun-25 11:29N 48°57' W 125°34'0 0.0
2017-Jun-25 10:59N 48°57' W 125°34'0 0.0
2017-Jun-25 10:29N 48°57' W 125°34'0 0.0
2017-Jun-25 09:56N 48°57' W 125°34'0 0.0
2017-Jun-25 09:29N 48°57' W 125°34'0 0.0
2017-Jun-25 08:59N 48°57' W 125°34'0 0.0
2017-Jun-25 08:29N 48°57' W 125°34'0 0.0
2017-Jun-25 07:59N 48°57' W 125°34'0 0.0
2017-Jun-25 07:29N 48°57' W 125°34'0 0.0
2017-Jun-25 06:59N 48°57' W 125°34'0 0.0
2017-Jun-25 06:29N 48°57' W 125°34'0 0.0
2017-Jun-25 05:59N 48°57' W 125°34'0 0.0
2017-Jun-25 05:29N 48°57' W 125°34'0 0.0
2017-Jun-25 04:59N 48°57' W 125°34'0 0.0
2017-Jun-25 04:29N 48°57' W 125°34'0 0.0
2017-Jun-25 03:59N 48°57' W 125°34'0 0.0
2017-Jun-25 03:29N 48°57' W 125°34'0 0.0
2017-Jun-25 02:59N 48°57' W 125°34'0 0.0
2017-Jun-25 02:29N 48°57' W 125°34'0 0.0
2017-Jun-25 01:59N 48°57' W 125°34'0 0.0
2017-Jun-25 01:29N 48°57' W 125°34'0 0.0
2017-Jun-25 00:59N 48°57' W 125°34'0 0.0
2017-Jun-25 00:29N 48°57' W 125°34'0 0.0
2017-Jun-24 23:59N 48°57' W 125°34'0 0.9
2017-Jun-24 23:30N 48°57' W 125°33'2 4.1
2017-Jun-24 23:00N 48°56' W 125°31'2 4.1
2017-Jun-24 22:29N 48°55' W 125°28'6 1.3
2017-Jun-24 17:49N 48°58' W 125°20'3 9.6
2017-Jun-24 17:30N 48°57' W 125°15'  
2017-Jun-20 19:26N 48°55' W 125°19'2 4.2
2017-Jun-20 18:52N 48°53' W 125°19'0 0.2
2017-Jun-20 18:08N 48°52' W 125°18'0 0.0
2017-Jun-20 17:38N 48°52' W 125°18'0 0.0
2017-Jun-20 17:23N 48°52' W 125°18'0 0.0
2017-Jun-20 16:44N 48°52' W 125°18'0 0.0
2017-Jun-20 16:29N 48°52' W 125°18'0 0.0
2017-Jun-20 15:02N 48°52' W 125°18'0 0.0
2017-Jun-20 14:59N 48°52' W 125°18'0 0.0
2017-Jun-20 14:29N 48°52' W 125°18'0 0.0
2017-Jun-20 13:29N 48°52' W 125°18'0 0.0
2017-Jun-20 12:56N 48°52' W 125°18'0 0.0
2017-Jun-20 12:29N 48°52' W 125°18'0 0.0
2017-Jun-20 11:50N 48°52' W 125°18'0 0.0
2017-Jun-20 11:26N 48°52' W 125°18'0 0.1
2017-Jun-20 10:59N 48°52' W 125°18'0 0.0
2017-Jun-20 10:29N 48°52' W 125°18'0 0.0
2017-Jun-20 09:59N 48°52' W 125°18'0 0.0
2017-Jun-20 09:29N 48°52' W 125°18'0 0.0
2017-Jun-20 07:38N 48°52' W 125°18'0 0.0
2017-Jun-20 07:23N 48°52' W 125°18'0 0.0
2017-Jun-20 06:56N 48°52' W 125°18'0 0.0
2017-Jun-20 05:59N 48°52' W 125°18'0 0.0
2017-Jun-20 05:26N 48°52' W 125°18'0 0.0
2017-Jun-20 04:50N 48°52' W 125°18'0 0.0
2017-Jun-20 02:44N 48°52' W 125°18'0 0.0
2017-Jun-19 23:56N 48°52' W 125°18'0 0.1
2017-Jun-19 23:25N 48°53' W 125°19'0 0.0
2017-Jun-19 22:52N 48°53' W 125°19'1 1.5
2017-Jun-19 22:26N 48°53' W 125°19'23 8.8
2017-Jun-19 19:47N 48°38' W 124°52'310.0
2017-Jun-19 19:30N 48°37' W 124°48'5 9.5
2017-Jun-19 19:00N 48°35' W 124°42'5 9.7
2017-Jun-19 18:30N 48°33' W 124°35'510.0
2017-Jun-19 18:00N 48°30' W 124°29'510.3
2017-Jun-19 17:30N 48°28' W 124°22'510.1
2017-Jun-19 17:00N 48°26' W 124°15'610.3
2017-Jun-19 16:27N 48°24' W 124°07'2510.2
2017-Jun-19 13:58N 48°20' W 123°29'5 9.6
2017-Jun-19 13:29N 48°24' W 123°25'3 0.2
2017-Jun-18 23:43N 48°25' W 123°22'0 2.0
2017-Jun-18 23:30N 48°25' W 123°23'0 0.1
2017-Jun-18 23:00N 48°25' W 123°23'0 0.1
2017-Jun-18 22:03N 48°25' W 123°23'0 1.9
2017-Jun-18 22:00N 48°25' W 123°23'2 3.6
2017-Jun-18 21:30N 48°24' W 123°21'611.1
2017-Jun-18 21:00N 48°21' W 123°14'  

Dump ship's entire track history